KBYI/BYI METAR and TAF weather

Enter ICAO airport designator
Station Type Date Time Source
KBYI METAR 2022/01/26 07:31 UTC NOAA

KBYI 260731Z AUTO 09006KT 1/2SM FZFG VV002 M08/M10 A3030 RMK AO2 I1000 T10781100


Station Type Date Time Source
KBYI Decoded METAR 2022/01/26 07:31 UTC NOAA

BURLEY MUNICIPAL AIRPORT, ID, United States (KBYI) 42-33N 113-46W 1264M
Jan 26, 2022 - 02:31 AM EST / 2022.01.26 0731 UTC
Wind: from the E (090 degrees) at 7 MPH (6 KT):0
Visibility: 1/2 mile(s):0
Sky conditions: obscured
Weather: freezing fog
Temperature: 18.0 F (-7.8 C)
Windchill: 8 F (-13 C):1
Dew Point: 14.0 F (-10.0 C)
Relative Humidity: 84%
Pressure (altimeter): 30.3 in. Hg (1026 hPa)
ob: KBYI 260731Z AUTO 09006KT 1/2SM FZFG VV002 M08/M10 A3030 RMK AO2 I1000 T10781100
cycle: 7

Station Type Date Time Source
KBYI TAF 2022/01/26 08:48 UTC NOAA

TAF
AMD KBYI 260746Z 2608/2706 VRB03KT 1/2SM FZFG VV002
FM261700 06005KT P6SM SCT004 BKN120

Example: see airport list